Time;durP1;ratioP1;P1;durP2;ratioP2;P2;SDS_P1;SDS_P2;PMS_P1;PMS_P2;Temp;Humidity;BMP_temperature;BMP_pressure;BME280_temperature;BME280_humidity;BME280_pressure;Samples;Min_cycle;Max_cycle;Signal;HPM_P1;HPM_P2
2022/05/14 00:01:46;;;;;;;2.35;1.70;;;;;;;;;;5095055;28;20032;-53
2022/05/14 00:04:14;;;;;;;1.45;1.00;;;;;;;;;;5093854;28;20123;-52
2022/05/14 00:06:42;;;;;;;2.00;1.48;;;;;;;;;;5094812;28;20036;-53
2022/05/14 00:09:09;;;;;;;1.60;0.90;;;;;;;;;;5094951;28;20118;-51
2022/05/14 00:14:23;;;;;;;0.95;0.85;;;;;;;;;;5104887;28;20097;-57
2022/05/14 00:16:51;;;;;;;1.58;1.00;;;;;;;;;;5115357;28;20036;-58
2022/05/14 00:19:18;;;;;;;1.05;0.90;;;;;;;;;;5097058;28;20375;-56
2022/05/14 00:21:46;;;;;;;0.90;0.80;;;;;;;;;;5114668;28;20452;-55
2022/05/14 00:24:13;;;;;;;1.35;1.10;;;;;;;;;;5114966;28;20047;-56
2022/05/14 00:26:41;;;;;;;8.30;5.35;;;;;;;;;;5114985;28;20046;-56
2022/05/14 00:29:08;;;;;;;11.05;7.35;;;;;;;;;;5114898;28;20048;-55
2022/05/14 00:31:36;;;;;;;11.32;9.23;;;;;;;;;;5096382;28;20036;-51
2022/05/14 00:34:04;;;;;;;15.60;13.00;;;;;;;;;;5114976;28;20402;-55
2022/05/14 00:36:32;;;;;;;18.42;15.75;;;;;;;;;;5114511;28;20039;-52
2022/05/14 00:39:00;;;;;;;12.18;9.18;;;;;;;;;;5114702;28;20065;-50
2022/05/14 00:41:28;;;;;;;9.23;7.90;;;;;;;;;;5114135;28;20494;-48
2022/05/14 00:43:58;;;;;;;7.25;5.10;;;;;;;;;;5129833;27;20506;-51
2022/05/14 00:46:53;;;;;;;5.18;3.65;;;;;;;;;;5113464;28;20058;-56
2022/05/14 00:49:22;;;;;;;5.28;2.38;;;;;;;;;;5130202;27;20048;-50
2022/05/14 00:51:51;;;;;;;3.42;1.45;;;;;;;;;;5114356;28;20044;-57
2022/05/14 00:54:26;;;;;;;2.63;1.50;;;;;;;;;;5114406;28;20043;-50
2022/05/14 00:57:00;;;;;;;4.00;0.98;;;;;;;;;;5113227;28;20510;-51
2022/05/14 00:59:28;;;;;;;1.60;1.20;;;;;;;;;;5129857;27;20387;-54
2022/05/14 01:01:59;;;;;;;1.55;1.15;;;;;;;;;;5114167;28;20032;-53
2022/05/14 01:04:29;;;;;;;1.17;0.90;;;;;;;;;;5113232;28;20043;-57
2022/05/14 01:07:08;;;;;;;1.65;1.05;;;;;;;;;;5114306;28;20039;-49
2022/05/14 01:09:43;;;;;;;1.92;1.00;;;;;;;;;;5113801;28;20048;-52
2022/05/14 01:12:13;;;;;;;1.60;1.13;;;;;;;;;;5114105;28;20096;-55
2022/05/14 01:14:41;;;;;;;2.97;1.00;;;;;;;;;;5112416;28;20082;-52
2022/05/14 01:17:10;;;;;;;2.15;0.90;;;;;;;;;;5112560;28;20123;-52
2022/05/14 01:19:39;;;;;;;1.33;1.00;;;;;;;;;;5112565;28;20050;-53
2022/05/14 01:22:21;;;;;;;1.88;0.98;;;;;;;;;;5113887;28;20058;-53
2022/05/14 01:28:13;;;;;;;1.50;1.00;;;;;;;;;;5113742;28;20043;-49
2022/05/14 01:31:01;;;;;;;1.98;1.27;;;;;;;;;;5095213;28;20043;-54
2022/05/14 01:33:32;;;;;;;1.83;0.85;;;;;;;;;;5113361;28;20047;-54
2022/05/14 01:36:00;;;;;;;2.60;0.90;;;;;;;;;;5095369;28;20040;-53
2022/05/14 01:38:27;;;;;;;1.17;1.02;;;;;;;;;;5095468;28;20039;-51
2022/05/14 01:40:55;;;;;;;1.00;0.90;;;;;;;;;;5094875;28;20083;-53
2022/05/14 01:43:23;;;;;;;1.48;1.08;;;;;;;;;;5095070;28;20043;-53
2022/05/14 01:45:51;;;;;;;1.40;1.02;;;;;;;;;;5095053;28;20158;-58
2022/05/14 01:48:19;;;;;;;1.25;0.95;;;;;;;;;;5095082;28;20036;-57
2022/05/14 01:50:46;;;;;;;1.35;0.82;;;;;;;;;;5113071;28;20043;-53
2022/05/14 01:53:16;;;;;;;1.35;0.93;;;;;;;;;;5094873;28;20061;-57
2022/05/14 01:55:43;;;;;;;1.00;0.80;;;;;;;;;;5112073;28;20071;-58
2022/05/14 02:00:59;;;;;;;3.72;0.90;;;;;;;;;;5094819;28;20043;-51
2022/05/14 02:03:27;;;;;;;2.65;0.95;;;;;;;;;;5095037;28;20047;-59
2022/05/14 02:05:54;;;;;;;1.00;0.90;;;;;;;;;;5112900;28;20040;-50
2022/05/14 02:08:22;;;;;;;1.08;0.98;;;;;;;;;;5094615;28;20079;-53
2022/05/14 02:10:49;;;;;;;1.77;1.10;;;;;;;;;;5094536;28;20059;-48
2022/05/14 02:13:18;;;;;;;1.75;1.10;;;;;;;;;;5094352;28;20502;-52
2022/05/14 02:15:47;;;;;;;1.27;0.98;;;;;;;;;;5094342;28;20052;-54
2022/05/14 02:18:14;;;;;;;3.05;1.10;;;;;;;;;;5094392;28;20051;-55
2022/05/14 02:20:41;;;;;;;1.00;0.88;;;;;;;;;;5112551;28;20050;-57
2022/05/14 02:23:08;;;;;;;1.08;0.95;;;;;;;;;;5094363;28;20044;-48
2022/05/14 02:25:36;;;;;;;2.53;1.30;;;;;;;;;;5112581;28;20046;-53
2022/05/14 02:28:04;;;;;;;1.30;0.88;;;;;;;;;;5094368;28;20138;-48
2022/05/14 02:30:31;;;;;;;1.65;0.68;;;;;;;;;;5094185;28;20040;-53
2022/05/14 02:32:59;;;;;;;1.05;0.65;;;;;;;;;;5112660;28;20123;-58
2022/05/14 02:35:27;;;;;;;1.73;1.02;;;;;;;;;;5112451;28;20066;-56
2022/05/14 02:37:55;;;;;;;1.50;1.00;;;;;;;;;;5112378;28;20043;-57
2022/05/14 02:40:22;;;;;;;1.15;0.93;;;;;;;;;;5112292;28;20055;-58
2022/05/14 02:42:50;;;;;;;1.55;0.88;;;;;;;;;;5094221;28;20710;-54
2022/05/14 02:45:17;;;;;;;1.13;0.63;;;;;;;;;;5093720;28;20123;-57
2022/05/14 02:47:45;;;;;;;3.40;0.75;;;;;;;;;;5127809;27;20044;-51
2022/05/14 02:50:12;;;;;;;2.45;0.90;;;;;;;;;;5112119;28;20043;-52
2022/05/14 02:52:40;;;;;;;1.10;0.90;;;;;;;;;;5112108;28;20090;-57
2022/05/14 02:55:08;;;;;;;0.60;0.60;;;;;;;;;;5112219;28;20147;-58
2022/05/14 02:57:36;;;;;;;1.00;0.70;;;;;;;;;;5110767;28;20048;-58
2022/05/14 03:00:05;;;;;;;1.38;0.80;;;;;;;;;;5111761;28;20452;-52
2022/05/14 03:02:32;;;;;;;1.85;0.90;;;;;;;;;;5111875;28;20031;-50
2022/05/14 03:05:01;;;;;;;1.67;0.80;;;;;;;;;;5110533;28;20039;-49
2022/05/14 03:07:28;;;;;;;2.65;0.90;;;;;;;;;;5110878;28;20050;-54
2022/05/14 03:09:58;;;;;;;1.52;0.90;;;;;;;;;;5110858;28;20039;-57
2022/05/14 03:12:26;;;;;;;1.10;0.75;;;;;;;;;;5127962;27;20042;-54
2022/05/14 03:14:53;;;;;;;1.90;1.02;;;;;;;;;;5111539;28;20051;-56
2022/05/14 03:17:21;;;;;;;0.88;0.60;;;;;;;;;;5127592;27;20075;-53
2022/05/14 03:19:52;;;;;;;1.63;0.70;;;;;;;;;;5111794;28;20118;-58
2022/05/14 03:22:19;;;;;;;2.13;0.80;;;;;;;;;;5111926;28;20039;-53
2022/05/14 03:24:47;;;;;;;1.13;0.80;;;;;;;;;;5110684;28;20364;-57
2022/05/14 03:27:14;;;;;;;0.93;0.75;;;;;;;;;;5092858;28;20101;-56
2022/05/14 03:29:43;;;;;;;2.35;0.85;;;;;;;;;;5110701;28;20040;-52
2022/05/14 03:32:10;;;;;;;0.90;0.80;;;;;;;;;;5110349;28;20039;-58
2022/05/14 03:34:37;;;;;;;3.63;0.82;;;;;;;;;;5093058;28;20039;-51
2022/05/14 03:37:07;;;;;;;1.40;0.65;;;;;;;;;;5093403;28;20071;-58
2022/05/14 03:39:35;;;;;;;6.18;1.20;;;;;;;;;;5092878;28;20190;-54
2022/05/14 03:42:02;;;;;;;4.03;1.20;;;;;;;;;;5093508;28;20128;-51
2022/05/14 03:44:30;;;;;;;1.02;0.68;;;;;;;;;;5093257;28;20047;-50
2022/05/14 03:46:57;;;;;;;0.70;0.60;;;;;;;;;;5111692;28;20491;-51
2022/05/14 03:49:24;;;;;;;0.60;0.50;;;;;;;;;;5111559;28;20048;-57
2022/05/14 03:51:52;;;;;;;1.42;0.70;;;;;;;;;;5093487;28;20040;-58
2022/05/14 03:54:19;;;;;;;2.47;0.63;;;;;;;;;;5111963;28;20067;-52
2022/05/14 03:56:47;;;;;;;1.35;0.70;;;;;;;;;;5093279;28;20039;-53
2022/05/14 03:59:14;;;;;;;1.92;0.70;;;;;;;;;;5111637;28;20071;-54
2022/05/14 04:01:41;;;;;;;1.20;0.80;;;;;;;;;;5093058;28;20043;-58
2022/05/14 04:04:08;;;;;;;1.73;0.70;;;;;;;;;;5111668;28;20437;-58
2022/05/14 04:06:36;;;;;;;1.40;0.90;;;;;;;;;;5093055;28;20040;-58
2022/05/14 04:09:03;;;;;;;1.30;0.85;;;;;;;;;;5111199;28;20116;-58
2022/05/14 04:11:32;;;;;;;0.90;0.60;;;;;;;;;;5111172;28;20048;-53
2022/05/14 04:13:59;;;;;;;1.00;0.60;;;;;;;;;;5111162;28;20048;-49
2022/05/14 04:16:27;;;;;;;0.73;0.68;;;;;;;;;;5111548;28;20039;-49
2022/05/14 04:18:55;;;;;;;1.27;0.77;;;;;;;;;;5095967;28;20074;-58
2022/05/14 04:21:24;;;;;;;1.10;0.73;;;;;;;;;;5096517;28;20048;-53
2022/05/14 04:23:52;;;;;;;0.50;0.50;;;;;;;;;;5114957;28;20040;-51
2022/05/14 04:26:22;;;;;;;0.98;0.70;;;;;;;;;;5096522;28;20036;-51
2022/05/14 04:28:50;;;;;;;0.55;0.40;;;;;;;;;;5114766;28;20385;-53
2022/05/14 04:31:21;;;;;;;1.63;0.60;;;;;;;;;;5114936;28;20031;-50
2022/05/14 04:33:49;;;;;;;13.27;5.82;;;;;;;;;;5113503;28;20040;-55
2022/05/14 04:36:16;;;;;;;1.42;0.70;;;;;;;;;;5096137;28;20581;-52
2022/05/14 04:38:43;;;;;;;1.85;0.70;;;;;;;;;;5114743;28;20032;-58
2022/05/14 04:41:11;;;;;;;2.45;0.50;;;;;;;;;;5096283;28;20097;-56
2022/05/14 04:43:39;;;;;;;2.13;0.40;;;;;;;;;;5096107;28;20047;-58
2022/05/14 04:46:08;;;;;;;32.42;17.23;;;;;;;;;;5095903;28;20044;-56
2022/05/14 04:48:37;;;;;;;6.57;3.25;;;;;;;;;;5095906;28;20035;-58
2022/05/14 04:51:05;;;;;;;1.45;0.63;;;;;;;;;;5096107;28;20186;-57
2022/05/14 04:53:33;;;;;;;1.30;0.40;;;;;;;;;;5114287;28;20039;-50
2022/05/14 04:56:00;;;;;;;0.50;0.40;;;;;;;;;;5096187;28;20036;-58
2022/05/14 04:58:28;;;;;;;8.35;4.50;;;;;;;;;;5096134;28;20054;-55
2022/05/14 05:00:58;;;;;;;0.40;0.40;;;;;;;;;;5095697;28;20517;-56
2022/05/14 05:03:28;;;;;;;0.95;0.73;;;;;;;;;;5096193;28;20570;-58
2022/05/14 05:06:00;;;;;;;0.70;0.50;;;;;;;;;;5114309;28;20114;-53
2022/05/14 05:08:30;;;;;;;1.08;0.43;;;;;;;;;;5114408;28;20040;-53
2022/05/14 05:10:58;;;;;;;0.70;0.40;;;;;;;;;;5114268;28;20035;-53
2022/05/14 05:13:28;;;;;;;1.17;0.52;;;;;;;;;;5113579;28;20046;-55
2022/05/14 05:15:55;;;;;;;0.45;0.32;;;;;;;;;;5113905;28;20100;-55
2022/05/14 05:18:24;;;;;;;1.17;0.50;;;;;;;;;;5114071;28;20536;-52
2022/05/14 05:20:55;;;;;;;1.30;0.60;;;;;;;;;;5113684;28;20100;-56
2022/05/14 05:23:24;;;;;;;3.42;0.50;;;;;;;;;;5113885;28;20040;-55
2022/05/14 05:25:52;;;;;;;35.90;20.67;;;;;;;;;;5113600;28;20036;-56
2022/05/14 05:28:19;;;;;;;2.17;1.23;;;;;;;;;;5113352;28;20074;-56
2022/05/14 05:30:47;;;;;;;1.33;0.50;;;;;;;;;;5113865;28;20436;-54
2022/05/14 05:33:18;;;;;;;0.80;0.40;;;;;;;;;;5113731;28;20046;-55
2022/05/14 05:35:45;;;;;;;2.03;0.70;;;;;;;;;;5113053;28;20043;-51
2022/05/14 05:38:12;;;;;;;1.98;0.50;;;;;;;;;;5113425;28;20097;-59
2022/05/14 05:40:40;;;;;;;0.57;0.50;;;;;;;;;;5112892;28;20036;-56
2022/05/14 05:43:09;;;;;;;1.20;0.70;;;;;;;;;;5113332;28;20440;-55
2022/05/14 05:45:38;;;;;;;1.23;0.45;;;;;;;;;;5112957;28;20048;-55
2022/05/14 05:48:06;;;;;;;0.95;0.30;;;;;;;;;;5113294;28;20032;-54
2022/05/14 05:50:34;;;;;;;33.20;16.85;;;;;;;;;;5112930;28;20401;-56
2022/05/14 05:53:01;;;;;;;2.13;1.10;;;;;;;;;;5113411;28;20047;-50
2022/05/14 05:58:17;;;;;;;0.85;0.40;;;;;;;;;;5113060;28;20044;-52
2022/05/14 06:00:45;;;;;;;1.35;0.30;;;;;;;;;;5112740;28;20116;-55
2022/05/14 06:03:12;;;;;;;1.17;0.50;;;;;;;;;;5112858;28;20032;-57
2022/05/14 06:05:41;;;;;;;1.15;0.57;;;;;;;;;;5112849;28;20051;-53
2022/05/14 06:08:14;;;;;;;1.85;0.30;;;;;;;;;;5112868;28;20039;-54
2022/05/14 06:10:41;;;;;;;1.23;0.40;;;;;;;;;;5112856;28;20376;-58
2022/05/14 06:13:09;;;;;;;1.02;0.38;;;;;;;;;;5094736;28;20044;-57
2022/05/14 06:15:39;;;;;;;1.02;0.40;;;;;;;;;;5112646;28;20048;-56
2022/05/14 06:18:08;;;;;;;0.35;0.30;;;;;;;;;;5112552;28;20081;-56
2022/05/14 06:20:38;;;;;;;0.77;0.30;;;;;;;;;;5112519;28;20050;-54
2022/05/14 06:23:07;;;;;;;0.60;0.40;;;;;;;;;;5112537;28;20050;-58
2022/05/14 06:25:34;;;;;;;0.68;0.40;;;;;;;;;;5111559;28;20055;-57
2022/05/14 06:28:02;;;;;;;369.05;228.70;;;;;;;;;;5106871;28;20392;-55
2022/05/14 06:30:30;;;;;;;18.55;10.88;;;;;;;;;;5095388;27;20054;-56
2022/05/14 06:33:02;;;;;;;1.80;0.82;;;;;;;;;;5071991;28;20139;-50
2022/05/14 06:35:30;;;;;;;1.13;0.50;;;;;;;;;;5071803;28;20047;-50
2022/05/14 06:37:57;;;;;;;1.95;0.70;;;;;;;;;;5071735;28;20097;-54
2022/05/14 06:40:24;;;;;;;1.05;0.30;;;;;;;;;;5070974;28;20041;-54
2022/05/14 06:42:53;;;;;;;0.77;0.30;;;;;;;;;;5071337;28;20044;-48
2022/05/14 06:45:21;;;;;;;0.95;0.32;;;;;;;;;;5071248;28;20048;-50
2022/05/14 06:47:48;;;;;;;1.10;0.40;;;;;;;;;;5071380;28;20049;-49
2022/05/14 06:50:15;;;;;;;0.63;0.40;;;;;;;;;;5071365;28;20125;-55
2022/05/14 06:52:46;;;;;;;1.33;0.30;;;;;;;;;;5071587;28;20066;-57
2022/05/14 06:55:19;;;;;;;0.93;0.45;;;;;;;;;;5071463;28;20072;-53
2022/05/14 06:57:48;;;;;;;1.02;0.70;;;;;;;;;;5080282;28;20105;-54
2022/05/14 07:00:16;;;;;;;0.47;0.30;;;;;;;;;;5091689;28;20123;-56
2022/05/14 07:02:45;;;;;;;156.55;107.53;;;;;;;;;;5091199;28;20044;-59
2022/05/14 07:07:59;;;;;;;2.80;0.93;;;;;;;;;;5076250;28;20106;-53
2022/05/14 07:10:27;;;;;;;0.80;0.30;;;;;;;;;;5091485;28;20040;-55
2022/05/14 07:12:55;;;;;;;0.93;0.40;;;;;;;;;;5091655;28;20371;-57
2022/05/14 07:15:22;;;;;;;2.17;0.40;;;;;;;;;;5091439;28;20248;-56
2022/05/14 07:17:49;;;;;;;1.02;0.47;;;;;;;;;;5091349;28;20089;-55
2022/05/14 07:20:23;;;;;;;1.27;0.50;;;;;;;;;;5091545;28;20036;-54
2022/05/14 07:22:51;;;;;;;2.03;0.57;;;;;;;;;;5090990;28;20150;-56
2022/05/14 07:25:18;;;;;;;0.85;0.57;;;;;;;;;;5091264;28;20043;-55
2022/05/14 07:27:46;;;;;;;1.63;0.60;;;;;;;;;;5090782;28;20043;-58
2022/05/14 07:30:14;;;;;;;1.00;0.40;;;;;;;;;;5091381;28;20039;-57
2022/05/14 07:32:41;;;;;;;1.00;0.45;;;;;;;;;;5091256;28;20044;-57
2022/05/14 07:35:09;;;;;;;1.05;0.50;;;;;;;;;;5091162;28;20097;-57
2022/05/14 07:37:43;;;;;;;0.77;0.57;;;;;;;;;;5091258;28;20052;-56
2022/05/14 07:40:17;;;;;;;0.65;0.38;;;;;;;;;;5091238;28;20033;-55
2022/05/14 07:42:56;;;;;;;1.33;0.52;;;;;;;;;;5090852;28;20040;-60
2022/05/14 07:45:27;;;;;;;1.85;0.50;;;;;;;;;;5091205;28;20037;-59
2022/05/14 07:47:57;;;;;;;1.70;0.55;;;;;;;;;;5090779;28;20123;-58
2022/05/14 07:50:24;;;;;;;1.20;0.52;;;;;;;;;;5073117;28;20487;-56
2022/05/14 07:52:52;;;;;;;1.83;0.60;;;;;;;;;;5094237;28;20051;-57
2022/05/14 07:55:19;;;;;;;2.72;0.40;;;;;;;;;;5094694;28;20077;-58
2022/05/14 07:57:47;;;;;;;1.08;0.40;;;;;;;;;;5093830;28;20072;-58
2022/05/14 08:00:16;;;;;;;0.93;0.50;;;;;;;;;;5094748;28;20077;-57
2022/05/14 08:02:46;;;;;;;1.02;0.50;;;;;;;;;;5094638;28;20451;-59
2022/05/14 08:05:15;;;;;;;0.63;0.40;;;;;;;;;;5094763;28;20098;-55
2022/05/14 08:07:43;;;;;;;0.60;0.40;;;;;;;;;;5094721;28;20438;-55
2022/05/14 08:10:13;;;;;;;58.55;32.75;;;;;;;;;;5094775;28;20043;-56
2022/05/14 08:12:50;;;;;;;3.95;1.50;;;;;;;;;;5094539;28;20044;-57
2022/05/14 08:15:25;;;;;;;1.40;0.60;;;;;;;;;;5094282;28;20052;-56
2022/05/14 08:17:52;;;;;;;1.67;0.82;;;;;;;;;;5094745;28;20360;-54
2022/05/14 08:20:20;;;;;;;2.20;0.63;;;;;;;;;;5094520;28;20036;-59
2022/05/14 08:25:34;;;;;;;2.88;0.93;;;;;;;;;;5094309;28;20119;-58
2022/05/14 08:28:01;;;;;;;1.42;0.60;;;;;;;;;;5094505;28;20797;-59
2022/05/14 08:30:32;;;;;;;0.50;0.40;;;;;;;;;;5086519;28;20043;-57
2022/05/14 08:33:00;;;;;;;1.45;0.60;;;;;;;;;;5093823;28;20416;-57
2022/05/14 08:35:28;;;;;;;2.95;0.77;;;;;;;;;;5094368;28;20044;-58
2022/05/14 08:37:57;;;;;;;0.65;0.52;;;;;;;;;;5094071;28;20550;-58
2022/05/14 08:40:32;;;;;;;1.42;0.55;;;;;;;;;;5094255;28;20513;-58
2022/05/14 08:43:03;;;;;;;2.40;1.17;;;;;;;;;;5094244;28;20511;-59
2022/05/14 08:45:36;;;;;;;1.10;0.30;;;;;;;;;;5094077;28;20040;-57
2022/05/14 08:48:15;;;;;;;0.88;0.32;;;;;;;;;;5093932;28;20044;-55
2022/05/14 08:50:44;;;;;;;0.40;0.30;;;;;;;;;;5093694;28;20502;-58
2022/05/14 08:53:13;;;;;;;1.45;0.50;;;;;;;;;;5093794;28;20491;-58
2022/05/14 08:55:46;;;;;;;1.55;0.40;;;;;;;;;;5093794;28;20036;-54
2022/05/14 08:58:44;;;;;;;0.35;0.30;;;;;;;;;;5094014;28;20044;-55
2022/05/14 09:01:18;;;;;;;0.55;0.30;;;;;;;;;;5093782;28;20036;-55
2022/05/14 09:03:46;;;;;;;0.82;0.30;;;;;;;;;;5093012;28;20042;-56
2022/05/14 09:06:13;;;;;;;1.75;0.30;;;;;;;;;;5093543;28;20040;-56
2022/05/14 09:08:41;;;;;;;2.15;0.40;;;;;;;;;;5093648;28;20510;-54
2022/05/14 09:11:20;;;;;;;1.23;0.32;;;;;;;;;;5093488;28;20048;-57
2022/05/14 09:13:50;;;;;;;2.15;0.40;;;;;;;;;;5093111;28;20052;-58
2022/05/14 09:16:28;;;;;;;0.90;0.50;;;;;;;;;;5093615;28;20047;-58
2022/05/14 09:18:56;;;;;;;0.30;0.30;;;;;;;;;;5093589;28;20032;-57
2022/05/14 09:21:29;;;;;;;0.52;0.50;;;;;;;;;;5093222;28;20051;-57
2022/05/14 09:24:00;;;;;;;33.42;19.88;;;;;;;;;;5093357;28;20055;-56
2022/05/14 09:26:33;;;;;;;2.40;0.60;;;;;;;;;;5093317;28;20065;-58
2022/05/14 09:29:39;;;;;;;0.70;0.40;;;;;;;;;;5093075;28;20040;-57
2022/05/14 09:32:24;;;;;;;0.30;0.20;;;;;;;;;;5092838;28;20499;-59
2022/05/14 09:35:06;;;;;;;0.85;0.25;;;;;;;;;;5093223;28;20482;-56
2022/05/14 09:37:49;;;;;;;2.03;0.40;;;;;;;;;;5092986;28;20040;-59
2022/05/14 09:40:22;;;;;;;0.57;0.43;;;;;;;;;;5093040;28;20036;-57
2022/05/14 09:43:06;;;;;;;3.90;0.40;;;;;;;;;;5093101;28;20036;-56
2022/05/14 09:45:37;;;;;;;0.47;0.40;;;;;;;;;;5092609;28;20391;-57
2022/05/14 09:48:17;;;;;;;1.17;0.52;;;;;;;;;;5092702;28;20040;-58
2022/05/14 09:50:57;;;;;;;2.30;0.60;;;;;;;;;;5092465;28;20036;-55
2022/05/14 09:53:28;;;;;;;1.13;0.57;;;;;;;;;;5092958;28;20469;-54
2022/05/14 09:56:02;;;;;;;0.85;0.30;;;;;;;;;;5092726;28;20047;-53
2022/05/14 09:58:54;;;;;;;2.67;0.30;;;;;;;;;;5092898;28;20043;-56
2022/05/14 10:01:41;;;;;;;0.95;0.20;;;;;;;;;;5092676;28;20036;-59
2022/05/14 10:04:46;;;;;;;1.13;0.40;;;;;;;;;;5092649;28;20040;-58
2022/05/14 10:07:26;;;;;;;3.22;0.38;;;;;;;;;;5092176;28;20044;-59
2022/05/14 10:10:12;;;;;;;0.95;0.40;;;;;;;;;;5074588;28;20040;-56
2022/05/14 10:12:53;;;;;;;73.22;39.05;;;;;;;;;;5092316;28;20513;-57
2022/05/14 10:15:45;;;;;;;7.85;2.40;;;;;;;;;;5091325;28;20044;-57
2022/05/14 10:18:24;;;;;;;0.70;0.38;;;;;;;;;;5092469;28;20063;-56
2022/05/14 10:21:03;;;;;;;1.27;0.50;;;;;;;;;;5092198;28;20048;-58
2022/05/14 10:27:07;;;;;;;2.00;0.50;;;;;;;;;;5091971;28;20499;-58
2022/05/14 10:29:59;;;;;;;1.40;0.30;;;;;;;;;;5092107;28;20048;-57
2022/05/14 10:32:31;;;;;;;1.13;0.30;;;;;;;;;;5091948;28;20119;-57
2022/05/14 10:35:17;;;;;;;0.20;0.20;;;;;;;;;;5092144;28;20127;-56
2022/05/14 10:37:47;;;;;;;0.57;0.35;;;;;;;;;;5091839;28;20075;-54
2022/05/14 10:40:18;;;;;;;0.40;0.20;;;;;;;;;;5092050;28;20117;-58
2022/05/14 10:42:52;;;;;;;0.88;0.50;;;;;;;;;;5091872;28;20101;-58
2022/05/14 10:45:24;;;;;;;0.95;0.38;;;;;;;;;;5091759;28;20490;-54
2022/05/14 10:48:00;;;;;;;0.32;0.30;;;;;;;;;;5091656;28;20073;-58
2022/05/14 10:50:30;;;;;;;0.70;0.30;;;;;;;;;;5091642;28;20048;-59
2022/05/14 10:52:58;;;;;;;0.43;0.40;;;;;;;;;;5092029;28;20040;-57
2022/05/14 10:55:32;;;;;;;1.75;0.47;;;;;;;;;;5091620;28;20040;-57
2022/05/14 10:58:04;;;;;;;2.28;0.47;;;;;;;;;;5091960;28;20044;-59
2022/05/14 11:00:40;;;;;;;5.78;0.73;;;;;;;;;;5073347;28;20051;-57
2022/05/14 11:03:14;;;;;;;3.10;1.15;;;;;;;;;;5091615;28;20135;-56
2022/05/14 11:06:05;;;;;;;12.93;5.05;;;;;;;;;;5073300;28;20040;-53
2022/05/14 11:08:45;;;;;;;5.75;0.85;;;;;;;;;;5091288;28;20097;-55
2022/05/14 11:11:28;;;;;;;1.70;0.40;;;;;;;;;;5091582;28;20040;-58
2022/05/14 11:14:01;;;;;;;0.60;0.40;;;;;;;;;;5091299;28;20056;-56
2022/05/14 11:16:58;;;;;;;2.13;1.10;;;;;;;;;;5091770;28;20127;-58
2022/05/14 11:19:32;;;;;;;1.35;0.50;;;;;;;;;;5074852;28;20048;-53
2022/05/14 11:22:01;;;;;;;1.48;0.30;;;;;;;;;;5091366;28;20044;-58
2022/05/14 11:24:36;;;;;;;0.30;0.30;;;;;;;;;;5091337;28;20038;-57
2022/05/14 11:27:04;;;;;;;0.40;0.30;;;;;;;;;;5090961;28;20044;-55
2022/05/14 11:29:47;;;;;;;2.75;0.38;;;;;;;;;;5091222;28;20495;-56
2022/05/14 11:32:18;;;;;;;0.90;0.20;;;;;;;;;;5091164;28;20076;-55
2022/05/14 11:34:53;;;;;;;0.98;0.30;;;;;;;;;;5091174;28;20040;-58
2022/05/14 11:37:29;;;;;;;0.52;0.30;;;;;;;;;;5091208;28;20123;-56
2022/05/14 11:40:21;;;;;;;0.77;0.30;;;;;;;;;;5091196;28;20086;-57
2022/05/14 11:43:10;;;;;;;1.48;0.60;;;;;;;;;;5090988;28;20044;-56
2022/05/14 11:45:49;;;;;;;1.05;0.40;;;;;;;;;;5090859;28;20066;-55
2022/05/14 11:48:27;;;;;;;1.63;0.25;;;;;;;;;;5073005;28;20036;-56
2022/05/14 11:51:15;;;;;;;1.50;0.30;;;;;;;;;;5091087;28;20410;-57
2022/05/14 11:54:02;;;;;;;2.10;0.50;;;;;;;;;;5090789;28;20044;-55
2022/05/14 11:56:50;;;;;;;132.60;56.65;;;;;;;;;;5090909;28;20044;-51
2022/05/14 11:59:49;;;;;;;3.33;1.20;;;;;;;;;;5072833;28;20059;-55
2022/05/14 12:03:13;;;;;;;1.42;0.40;;;;;;;;;;5067853;28;20059;-55
2022/05/14 12:05:59;;;;;;;0.55;0.40;;;;;;;;;;5087371;28;20044;-58
2022/05/14 12:09:02;;;;;;;0.40;0.30;;;;;;;;;;5090898;28;20130;-58
2022/05/14 12:11:38;;;;;;;1.37;0.40;;;;;;;;;;5091206;28;20070;-58
2022/05/14 12:14:16;;;;;;;1.15;0.57;;;;;;;;;;5090839;28;20086;-58
2022/05/14 12:16:47;;;;;;;1.00;0.40;;;;;;;;;;5090805;28;20102;-57
2022/05/14 12:19:18;;;;;;;0.68;0.52;;;;;;;;;;5090594;28;20047;-57
2022/05/14 12:22:01;;;;;;;1.60;0.30;;;;;;;;;;5090651;28;20040;-55
2022/05/14 12:24:32;;;;;;;0.73;0.30;;;;;;;;;;5090835;28;20036;-58
2022/05/14 12:27:00;;;;;;;0.82;0.30;;;;;;;;;;5090825;28;20037;-58
2022/05/14 12:29:32;;;;;;;12.73;6.25;;;;;;;;;;5090689;28;20035;-58
2022/05/14 12:34:46;;;;;;;0.98;0.43;;;;;;;;;;5070626;28;20377;-56
2022/05/14 12:37:39;;;;;;;0.43;0.35;;;;;;;;;;5070120;28;20036;-57
2022/05/14 12:40:09;;;;;;;1.98;0.50;;;;;;;;;;5064593;28;20511;-58
2022/05/14 12:42:41;;;;;;;1.98;0.77;;;;;;;;;;5073871;28;20458;-58
2022/05/14 12:45:10;;;;;;;0.32;0.30;;;;;;;;;;5072353;28;20044;-57
2022/05/14 12:47:38;;;;;;;1.75;0.52;;;;;;;;;;5073939;28;20051;-59
2022/05/14 12:50:16;;;;;;;1.80;0.40;;;;;;;;;;5073538;28;20045;-57
2022/05/14 12:52:56;;;;;;;0.68;0.40;;;;;;;;;;5073655;28;20047;-58
2022/05/14 12:55:25;;;;;;;1.33;0.30;;;;;;;;;;5073542;28;20148;-58
2022/05/14 12:57:54;;;;;;;0.63;0.22;;;;;;;;;;5073556;28;20046;-58
2022/05/14 13:00:22;;;;;;;1.05;0.40;;;;;;;;;;5073185;28;20119;-56
2022/05/14 13:03:01;;;;;;;1.33;0.30;;;;;;;;;;5073252;28;20040;-59
2022/05/14 13:05:39;;;;;;;13.60;7.43;;;;;;;;;;5073800;28;20037;-60
2022/05/14 13:08:08;;;;;;;21.70;11.52;;;;;;;;;;5073459;28;20079;-58
2022/05/14 13:10:37;;;;;;;2.03;0.63;;;;;;;;;;5073334;28;20062;-56
2022/05/14 13:13:08;;;;;;;1.65;0.40;;;;;;;;;;5073252;28;20490;-56
2022/05/14 13:15:53;;;;;;;2.10;0.30;;;;;;;;;;5073329;28;20083;-57
2022/05/14 13:18:32;;;;;;;1.80;0.40;;;;;;;;;;5073311;28;20630;-59
2022/05/14 13:21:05;;;;;;;0.60;0.40;;;;;;;;;;5073262;28;20110;-55
2022/05/14 13:23:34;;;;;;;0.50;0.40;;;;;;;;;;5073343;28;20036;-59
2022/05/14 13:26:12;;;;;;;2.40;0.50;;;;;;;;;;5073307;28;20045;-58
2022/05/14 13:28:41;;;;;;;0.70;0.45;;;;;;;;;;5083815;28;20036;-59
2022/05/14 13:31:28;;;;;;;1.83;0.50;;;;;;;;;;5093346;28;20032;-56
2022/05/14 13:37:07;;;;;;;0.75;0.30;;;;;;;;;;5092962;28;20044;-57
2022/05/14 13:37:10;;;;;;;1.17;0.50;;;;;;;;;;5093259;28;20514;-55
2022/05/14 13:39:44;;;;;;;2.97;0.60;;;;;;;;;;5092840;28;20036;-58
2022/05/14 13:42:23;;;;;;;1.38;0.40;;;;;;;;;;5092777;28;20048;-55
2022/05/14 13:45:02;;;;;;;0.65;0.50;;;;;;;;;;5093110;28;20518;-59
2022/05/14 13:47:30;;;;;;;2.75;0.30;;;;;;;;;;5093014;28;20042;-59
2022/05/14 13:50:00;;;;;;;0.50;0.35;;;;;;;;;;5092381;28;20123;-58
2022/05/14 13:52:32;;;;;;;2.67;1.02;;;;;;;;;;5074818;28;20051;-57
2022/05/14 13:55:10;;;;;;;2.95;0.98;;;;;;;;;;5074941;28;20036;-55
2022/05/14 13:57:40;;;;;;;1.25;0.40;;;;;;;;;;5092383;28;20044;-58
2022/05/14 14:00:19;;;;;;;1.20;0.30;;;;;;;;;;5092091;28;20441;-58
2022/05/14 14:03:06;;;;;;;0.20;0.20;;;;;;;;;;5091418;28;20081;-57
2022/05/14 14:05:36;;;;;;;0.77;0.47;;;;;;;;;;5091925;28;20107;-60
2022/05/14 14:08:07;;;;;;;1.27;0.30;;;;;;;;;;5092810;28;20040;-60
2022/05/14 14:10:35;;;;;;;1.05;0.40;;;;;;;;;;5092562;28;20380;-55
2022/05/14 14:13:06;;;;;;;1.50;0.38;;;;;;;;;;5092611;28;20040;-56
2022/05/14 14:15:35;;;;;;;0.98;0.50;;;;;;;;;;5092194;28;20056;-55
2022/05/14 14:18:03;;;;;;;0.82;0.40;;;;;;;;;;5092501;28;20097;-55
2022/05/14 14:20:44;;;;;;;1.63;0.50;;;;;;;;;;5092489;28;20402;-54
2022/05/14 14:23:20;;;;;;;1.00;0.50;;;;;;;;;;5091990;28;20049;-58
2022/05/14 14:25:48;;;;;;;1.17;0.75;;;;;;;;;;5091983;28;20044;-61
2022/05/14 14:28:16;;;;;;;0.90;0.40;;;;;;;;;;5084641;28;20365;-59
2022/05/14 14:30:43;;;;;;;1.77;0.52;;;;;;;;;;5071691;28;20036;-60
2022/05/14 14:33:10;;;;;;;1.75;0.68;;;;;;;;;;5071926;28;20060;-59
2022/05/14 14:35:38;;;;;;;4.07;2.13;;;;;;;;;;5071696;28;20040;-59
2022/05/14 14:38:06;;;;;;;1.75;0.50;;;;;;;;;;5071869;28;20437;-50
2022/05/14 14:40:33;;;;;;;1.33;0.30;;;;;;;;;;5071872;28;20047;-58
2022/05/14 14:43:01;;;;;;;0.57;0.32;;;;;;;;;;5071679;28;20040;-56
2022/05/14 14:45:37;;;;;;;0.80;0.40;;;;;;;;;;5071447;28;20052;-55
2022/05/14 14:48:06;;;;;;;0.25;0.20;;;;;;;;;;5071892;28;20041;-56
2022/05/14 14:50:34;;;;;;;1.13;0.30;;;;;;;;;;5071546;28;20094;-58
2022/05/14 14:53:01;;;;;;;0.77;0.40;;;;;;;;;;5071716;28;20055;-59
2022/05/14 14:55:28;;;;;;;3.05;0.90;;;;;;;;;;5071516;28;20495;-59
2022/05/14 14:57:56;;;;;;;1.65;0.35;;;;;;;;;;5071322;28;20111;-59
2022/05/14 15:00:25;;;;;;;0.77;0.60;;;;;;;;;;5071395;28;20049;-58
2022/05/14 15:03:01;;;;;;;0.98;0.50;;;;;;;;;;5070676;28;20037;-58
2022/05/14 15:05:33;;;;;;;0.95;0.38;;;;;;;;;;5071193;28;20112;-54
2022/05/14 15:08:02;;;;;;;0.88;0.38;;;;;;;;;;5071422;28;20028;-59
2022/05/14 15:10:31;;;;;;;4.40;0.50;;;;;;;;;;5071558;28;20036;-59
2022/05/14 15:13:01;;;;;;;0.77;0.50;;;;;;;;;;5071168;28;20040;-60
2022/05/14 15:15:29;;;;;;;0.98;0.45;;;;;;;;;;5071084;28;20066;-59
2022/05/14 15:17:56;;;;;;;2.05;0.40;;;;;;;;;;5070983;28;20049;-58
2022/05/14 15:20:24;;;;;;;0.40;0.38;;;;;;;;;;5071070;28;20045;-54
2022/05/14 15:22:52;;;;;;;1.55;0.30;;;;;;;;;;5071255;28;20037;-58
2022/05/14 15:25:19;;;;;;;0.47;0.38;;;;;;;;;;5070887;28;20040;-55
2022/05/14 15:27:47;;;;;;;0.20;0.20;;;;;;;;;;5074141;28;20035;-59
2022/05/14 15:30:14;;;;;;;1.00;0.50;;;;;;;;;;5091158;28;20453;-58
2022/05/14 15:32:44;;;;;;;0.75;0.30;;;;;;;;;;5091291;28;20044;-56